KBVX

Batesville Regional Airport

Batesville, Arkansas, USA
METAR KBVX 230256Z AUTO 00000KT 10SM CLR 22/21 A3003 RMK AO2 SLP165 T02220206 53013
Observed Flight Rules
May-23 @ 02:56 UTC (10 minutes ago) Visual Flight Rules
Visibility Clouds
10 miles
  • Clear skies
Temperatures Readings
Current 22°C / 72°F
Dewpoint 21°C / 70°F
Humidity 94%
Altimeter 30.03" Hg
Pressure 1016.5 hPa
Elevation 141
METAR KBVX 230256Z AUTO 00000KT 10SM CLR 22/21 A3003 RMK AO2 SLP165 T02220206 53013
Observed Flight Rules
May-23 @ 02:56 UTC
(10 minutes ago)
VFR
Clouds
  • Clear skies
Temperature Dewpoint
22°C / 72°F 21°C / 70°F
Humidity Altimeter Pressure
94% 30.03" Hg 1016.5 hPa